createdAt,value
2022-08-26T00:01:54.590Z,100869.53
2022-08-26T00:04:25.615Z,100866.19
2022-08-26T00:06:54.505Z,100866.19
2022-08-26T00:09:23.114Z,100861.88
2022-08-26T00:11:53.804Z,100863.78
2022-08-26T00:14:30.797Z,100859.25
2022-08-26T00:17:00.217Z,100864.63
2022-08-26T00:19:29.084Z,100864.69
2022-08-26T00:21:57.524Z,100862.06
2022-08-26T00:24:26.117Z,100861.16
2022-08-26T00:26:54.504Z,100862.94
2022-08-26T00:29:24.379Z,100863.03
2022-08-26T00:31:52.905Z,100867.44
2022-08-26T00:34:21.495Z,100864.81
2022-08-26T00:36:52.059Z,100863.03
2022-08-26T00:39:21.465Z,100866.59
2022-08-26T00:41:50.710Z,100870.28
2022-08-26T00:44:20.205Z,100861.56
2022-08-26T00:46:52.784Z,100865.88
2022-08-26T00:49:27.995Z,100873.88
2022-08-26T00:51:58.584Z,100869.44
2022-08-26T00:54:35.237Z,100869.66
2022-08-26T00:57:16.244Z,100869.66
2022-08-26T00:59:46.815Z,100867.03
2022-08-26T01:02:21.266Z,100870.50
2022-08-26T01:04:55.625Z,100875.75
2022-08-26T01:07:27.484Z,100870.69
2022-08-26T01:10:00.167Z,100875.88
2022-08-26T01:12:32.767Z,100877.63
2022-08-26T01:15:02.354Z,100875.94
2022-08-26T01:17:33.771Z,100878.56
2022-08-26T01:20:09.744Z,100889.84
2022-08-26T01:22:53.967Z,100887.28
2022-08-26T01:25:23.944Z,100887.41
2022-08-26T01:27:57.934Z,100893.50
2022-08-26T01:30:27.144Z,100884.03
2022-08-26T01:32:57.694Z,100890.25
2022-08-26T01:35:26.254Z,100891.09
2022-08-26T01:37:57.614Z,100894.66
2022-08-26T01:40:30.003Z,100885.06
2022-08-26T01:42:58.814Z,100897.28
2022-08-26T01:45:30.200Z,100900.13
2022-08-26T01:48:01.191Z,100905.38
2022-08-26T01:50:33.405Z,100907.25
2022-08-26T01:53:07.820Z,100914.50
2022-08-26T01:55:39.329Z,100922.25
2022-08-26T01:58:17.844Z,100927.44
2022-08-26T02:00:47.637Z,100927.44
2022-08-26T02:03:22.396Z,100930.91
2022-08-26T02:05:57.745Z,100933.59
2022-08-26T02:08:30.183Z,100930.13
2022-08-26T02:10:59.089Z,100939.72
2022-08-26T02:13:31.964Z,100938.03
2022-08-26T02:16:04.110Z,100945.91
2022-08-26T02:18:35.984Z,100948.53
2022-08-26T02:21:06.755Z,100948.72
2022-08-26T02:23:37.254Z,100951.47
2022-08-26T02:26:11.524Z,100948.84
2022-08-26T02:28:47.644Z,100953.25
2022-08-26T02:31:16.141Z,100959.44
2022-08-26T02:33:44.914Z,100957.75
2022-08-26T02:36:13.599Z,100966.59
2022-08-26T02:38:46.123Z,100953.53
2022-08-26T02:41:14.806Z,100953.53
2022-08-26T02:43:43.264Z,100957.97
2022-08-26T02:46:12.378Z,100962.38
2022-08-26T02:48:49.964Z,100963.41
2022-08-26T02:51:18.584Z,100968.66
2022-08-26T02:53:48.484Z,100969.63
2022-08-26T02:56:17.083Z,100976.66
2022-08-26T02:58:45.574Z,100973.16
2022-08-26T03:01:22.163Z,100974.88
2022-08-26T03:03:50.696Z,100976.75
2022-08-26T03:06:20.243Z,100977.69
2022-08-26T03:08:50.406Z,100977.88
2022-08-26T03:11:19.525Z,100978.72
2022-08-26T03:13:48.162Z,100979.69
2022-08-26T03:16:16.709Z,100981.34
2022-08-26T03:18:51.961Z,100977.06
2022-08-26T03:21:21.564Z,100976.19
2022-08-26T03:23:51.584Z,100976.19
2022-08-26T03:26:20.066Z,100972.81
2022-08-26T03:29:08.574Z,100977.31
2022-08-26T03:31:38.303Z,100977.31
2022-08-26T03:34:06.786Z,100982.56
2022-08-26T03:36:35.433Z,100984.47
2022-08-26T03:39:06.634Z,100985.41
2022-08-26T03:41:36.873Z,100977.72
2022-08-26T03:44:07.004Z,100986.53
2022-08-26T03:46:36.938Z,100983.91
2022-08-26T03:49:06.554Z,100979.41
2022-08-26T03:51:38.839Z,100974.38
2022-08-26T03:54:09.825Z,100975.28
2022-08-26T03:56:38.785Z,100981.56
2022-08-26T03:59:08.744Z,100979.81
2022-08-26T04:01:37.692Z,100981.38
2022-08-26T04:04:06.705Z,100973.81
2022-08-26T04:06:40.185Z,100979.81
2022-08-26T04:09:12.665Z,100978.28
2022-08-26T04:11:42.157Z,100986.16
2022-08-26T04:14:17.502Z,100982.81
2022-08-26T04:16:49.635Z,100982.63
2022-08-26T04:19:18.833Z,100989.63
2022-08-26T04:21:51.213Z,100987.13
2022-08-26T04:24:22.793Z,100983.84
2022-08-26T04:26:51.406Z,100985.72
2022-08-26T04:29:24.196Z,100991.72
2022-08-26T04:31:55.774Z,100987.69
2022-08-26T04:34:24.535Z,100987.69
2022-08-26T04:36:56.205Z,100990.13
2022-08-26T04:39:27.669Z,100984.88
2022-08-26T04:41:57.763Z,100985.84
2022-08-26T04:44:28.144Z,100987.63
2022-08-26T04:46:56.973Z,100990.97
2022-08-26T04:49:26.028Z,100983.28
2022-08-26T04:51:56.108Z,100993.06
2022-08-26T04:54:26.343Z,100994.63
2022-08-26T04:56:55.274Z,100995.56
2022-08-26T04:59:25.386Z,101000.06
2022-08-26T05:01:57.571Z,101000.06
2022-08-26T05:04:26.175Z,100997.63
2022-08-26T05:06:59.260Z,101001.97
2022-08-26T05:09:32.583Z,101001.00
2022-08-26T05:12:01.070Z,100993.25
2022-08-26T05:14:29.604Z,101002.88
2022-08-26T05:16:58.094Z,101011.66
2022-08-26T05:19:27.868Z,101007.25
2022-08-26T05:21:56.463Z,101009.03
2022-08-26T05:24:25.064Z,101016.28
2022-08-26T05:26:54.944Z,101022.28
2022-08-26T05:29:25.813Z,101026.13
2022-08-26T05:31:55.974Z,101028.75
2022-08-26T05:34:25.750Z,101030.22
2022-08-26T05:36:58.684Z,101026.00
2022-08-26T05:39:27.244Z,101037.38
2022-08-26T05:41:57.125Z,101034.19
2022-08-26T05:44:25.604Z,101041.09
2022-08-26T05:46:54.025Z,101041.94
2022-08-26T05:49:22.598Z,101046.34
2022-08-26T05:51:54.975Z,101039.63
2022-08-26T05:54:23.404Z,101048.44
2022-08-26T05:56:52.273Z,101038.84
2022-08-26T05:59:24.615Z,101037.00
2022-08-26T06:01:55.000Z,101035.31
2022-08-26T06:04:27.028Z,101046.66
2022-08-26T06:06:57.925Z,101052.72
2022-08-26T06:09:27.158Z,101058.16
2022-08-26T06:11:56.124Z,101051.97
2022-08-26T06:14:27.223Z,101057.69
2022-08-26T06:16:55.734Z,101068.28
2022-08-26T06:19:25.096Z,101066.44
2022-08-26T06:22:23.742Z,101065.28
2022-08-26T06:25:09.923Z,101066.63
2022-08-26T06:27:38.246Z,101061.19
2022-08-26T06:30:10.594Z,101063.88
2022-08-26T06:32:39.094Z,101064.53
2022-08-26T06:35:12.027Z,101064.34
2022-08-26T06:37:40.847Z,101068.56
2022-08-26T06:40:11.485Z,101072.03
2022-08-26T06:42:40.393Z,101072.59
2022-08-26T06:45:11.314Z,101081.13
2022-08-26T06:47:39.754Z,101080.84
2022-08-26T06:50:08.880Z,101081.13
2022-08-26T06:52:37.374Z,101080.09
2022-08-26T06:55:06.504Z,101090.69
2022-08-26T06:57:39.675Z,101090.41
2022-08-26T07:00:12.776Z,101100.00
2022-08-26T07:02:46.165Z,101102.03
2022-08-26T07:05:15.755Z,101094.06
2022-08-26T07:07:45.529Z,101108.50
2022-08-26T07:10:13.929Z,101108.19
2022-08-26T07:12:42.594Z,101113.53
2022-08-26T07:15:17.824Z,101108.75
2022-08-26T07:17:52.364Z,101109.22
2022-08-26T07:20:21.144Z,101109.94
2022-08-26T07:22:49.584Z,101115.38
2022-08-26T07:25:19.291Z,101118.66
2022-08-26T07:27:54.452Z,101118.66
2022-08-26T07:30:25.057Z,101115.66
2022-08-26T07:32:53.824Z,101112.69
2022-08-26T07:35:22.419Z,101116.16
2022-08-26T07:37:55.044Z,101111.00
2022-08-26T07:40:26.405Z,101121.13
2022-08-26T07:42:55.094Z,101122.81
2022-08-26T07:45:25.335Z,101126.03
2022-08-26T07:47:54.503Z,101127.34
2022-08-26T07:50:34.197Z,101125.06
2022-08-26T07:53:13.265Z,101137.00
2022-08-26T07:55:43.324Z,101132.78
2022-08-26T07:58:12.045Z,101141.66
2022-08-26T08:00:42.473Z,101133.78
2022-08-26T08:03:12.145Z,101135.13
2022-08-26T08:05:43.534Z,101133.44
2022-08-26T08:08:26.648Z,101132.41
2022-08-26T08:10:56.054Z,101126.16
2022-08-26T08:13:25.176Z,101131.50
2022-08-26T08:15:55.284Z,101131.75
2022-08-26T08:18:23.884Z,101129.63
2022-08-26T08:20:59.214Z,101136.47
2022-08-26T08:23:34.213Z,101129.56
2022-08-26T08:26:03.304Z,101140.28
2022-08-26T08:28:34.764Z,101135.81
2022-08-26T08:31:05.372Z,101137.50
2022-08-26T08:33:35.260Z,101137.50
2022-08-26T08:36:07.534Z,101140.78
2022-08-26T08:38:37.874Z,101146.69
2022-08-26T08:41:06.314Z,101139.69
2022-08-26T08:43:42.174Z,101146.25
2022-08-26T08:46:16.520Z,101141.38
2022-08-26T08:48:48.304Z,101147.28
2022-08-26T08:51:23.684Z,101155.16
2022-08-26T08:53:55.995Z,101151.56
2022-08-26T08:56:30.554Z,101150.66
2022-08-26T08:59:08.674Z,101149.31
2022-08-26T09:01:56.904Z,101146.44
2022-08-26T09:04:51.615Z,101143.50
2022-08-26T09:07:23.969Z,101145.22
2022-08-26T09:09:57.489Z,101141.00
2022-08-26T09:12:29.410Z,101140.16
2022-08-26T09:15:03.412Z,101140.78
2022-08-26T09:17:45.439Z,101142.13
2022-08-26T09:20:22.240Z,101141.44
2022-08-26T09:22:51.589Z,101147.25
2022-08-26T09:25:19.990Z,101142.44
2022-08-26T09:27:50.899Z,101135.47
2022-08-26T09:30:30.166Z,101142.88
2022-08-26T09:33:03.308Z,101134.63
2022-08-26T09:35:40.929Z,101134.44
2022-08-26T09:38:24.539Z,101137.50
2022-08-26T09:40:58.970Z,101135.28
2022-08-26T09:43:28.815Z,101135.81
2022-08-26T09:46:13.751Z,101140.97
2022-08-26T09:48:44.030Z,101142.19
2022-08-26T09:51:29.649Z,101142.50
2022-08-26T09:54:08.253Z,101140.13
2022-08-26T09:56:40.531Z,101129.25
2022-08-26T09:59:22.559Z,101128.03
2022-08-26T10:01:51.430Z,101126.09
2022-08-26T10:04:26.704Z,101114.44
2022-08-26T10:07:00.679Z,101124.50
2022-08-26T10:09:32.549Z,101119.50
2022-08-26T10:12:05.102Z,101121.94
2022-08-26T10:14:39.576Z,101128.06
2022-08-26T10:17:15.879Z,101129.19
2022-08-26T10:19:56.550Z,101133.75
2022-08-26T10:22:32.729Z,101127.66
2022-08-26T10:25:04.910Z,101123.94
2022-08-26T10:27:44.562Z,101127.66
2022-08-26T10:30:22.040Z,101130.47
2022-08-26T10:32:56.310Z,101131.41
2022-08-26T10:35:27.301Z,101129.78
2022-08-26T10:38:01.700Z,101126.31
2022-08-26T10:40:37.131Z,101132.34
2022-08-26T10:43:11.648Z,101136.88
2022-08-26T10:45:48.005Z,101130.72
2022-08-26T10:48:25.919Z,101129.56
2022-08-26T10:51:07.131Z,101128.69
2022-08-26T10:53:47.709Z,101123.06
2022-08-26T10:56:34.330Z,101121.00
2022-08-26T10:59:14.489Z,101133.66
2022-08-26T11:01:51.152Z,101121.28
2022-08-26T11:04:46.932Z,101130.19
2022-08-26T11:07:41.399Z,101134.34
2022-08-26T11:11:03.629Z,101135.84
2022-08-26T11:14:01.028Z,101133.03
2022-08-26T11:16:43.297Z,101130.47
2022-08-26T11:19:58.913Z,101128.72
2022-08-26T11:22:28.449Z,101128.72
2022-08-26T11:25:14.989Z,101126.63
2022-08-26T11:28:06.940Z,101131.69
2022-08-26T11:30:47.939Z,101140.34
2022-08-26T11:33:59.707Z,101138.56
2022-08-26T11:37:07.166Z,101136.56
2022-08-26T11:39:54.029Z,101135.72
2022-08-26T11:42:33.433Z,101137.34
2022-08-26T11:45:05.375Z,101134.53
2022-08-26T11:47:34.339Z,101129.59
2022-08-26T11:50:11.538Z,101132.88
2022-08-26T11:52:40.274Z,101130.38
2022-08-26T11:55:12.451Z,101131.13
2022-08-26T11:57:46.150Z,101134.41
2022-08-26T12:00:22.232Z,101135.03
2022-08-26T12:02:52.365Z,101139.34
2022-08-26T12:05:30.797Z,101143.78
2022-08-26T12:08:04.127Z,101135.88
2022-08-26T12:10:35.969Z,101145.56
2022-08-26T12:13:08.254Z,101146.41
2022-08-26T12:15:37.231Z,101143.47
2022-08-26T12:18:22.737Z,101146.00
2022-08-26T12:21:01.159Z,101136.16
2022-08-26T12:23:41.868Z,101136.16
2022-08-26T12:26:21.325Z,101145.50
2022-08-26T12:28:57.489Z,101137.63
2022-08-26T12:31:30.792Z,101144.59
2022-08-26T12:34:02.301Z,101142.88
2022-08-26T12:36:34.529Z,101136.34
2022-08-26T12:39:11.299Z,101131.97
2022-08-26T12:41:54.701Z,101139.34
2022-08-26T12:44:53.805Z,101146.47
2022-08-26T12:47:39.075Z,101142.88
2022-08-26T12:50:19.530Z,101135.75
2022-08-26T12:52:57.039Z,101130.13
2022-08-26T12:55:36.789Z,101130.03
2022-08-26T12:58:15.059Z,101135.19
2022-08-26T13:00:47.661Z,101131.63
2022-08-26T13:03:46.282Z,101135.00
2022-08-26T13:06:30.092Z,101125.63
2022-08-26T13:09:00.682Z,101127.31
2022-08-26T13:11:31.014Z,101128.06
2022-08-26T13:14:01.809Z,101128.13
2022-08-26T13:16:31.947Z,101118.69
2022-08-26T13:19:02.537Z,101125.50
2022-08-26T13:21:37.565Z,101125.56
2022-08-26T13:24:09.489Z,101127.47
2022-08-26T13:26:37.991Z,101129.16
2022-08-26T13:29:10.164Z,101125.88
2022-08-26T13:31:42.676Z,101132.06
2022-08-26T13:34:18.309Z,101124.41
2022-08-26T13:36:47.271Z,101129.41
2022-08-26T13:39:15.899Z,101120.47
2022-08-26T13:41:44.694Z,101125.97
2022-08-26T13:44:13.792Z,101119.91
2022-08-26T13:49:17.490Z,101122.94
2022-08-26T13:51:46.040Z,101116.44
2022-08-26T13:54:14.459Z,101120.97
2022-08-26T13:56:42.941Z,101125.69
2022-08-26T13:59:12.260Z,101123.47
2022-08-26T14:01:40.689Z,101109.50
2022-08-26T14:04:10.669Z,101103.72
2022-08-26T14:06:39.150Z,101100.78
2022-08-26T14:09:07.579Z,101114.25
2022-08-26T14:11:50.544Z,101115.84
2022-08-26T14:14:22.684Z,101108.03
2022-08-26T14:16:58.966Z,101102.78
2022-08-26T14:19:31.379Z,101109.63
2022-08-26T14:22:01.640Z,101109.63
2022-08-26T14:24:30.744Z,101104.19
2022-08-26T14:26:59.651Z,101108.88
2022-08-26T14:29:28.580Z,101113.88
2022-08-26T14:31:58.879Z,101110.88
2022-08-26T14:34:27.449Z,101105.75
2022-08-26T14:36:57.371Z,101106.56
2022-08-26T14:39:29.389Z,101114.75
2022-08-26T14:41:58.430Z,101118.34
2022-08-26T14:44:30.669Z,101120.56
2022-08-26T14:47:02.764Z,101118.91
2022-08-26T14:49:31.760Z,101115.84
2022-08-26T14:52:02.205Z,101120.06
2022-08-26T14:54:30.206Z,101112.31
2022-08-26T14:57:01.930Z,101105.44
2022-08-26T14:59:32.649Z,101104.81
2022-08-26T15:02:01.895Z,101095.31
2022-08-26T15:04:30.770Z,101100.72
2022-08-26T15:07:02.570Z,101104.94
2022-08-26T15:09:33.460Z,101100.50
2022-08-26T15:12:02.069Z,101093.53
2022-08-26T15:14:32.964Z,101091.44
2022-08-26T15:17:01.779Z,101089.34
2022-08-26T15:19:30.249Z,101100.38
2022-08-26T15:21:58.830Z,101093.25
2022-08-26T15:24:29.129Z,101098.81
2022-08-26T15:26:58.189Z,101091.66
2022-08-26T15:29:26.679Z,101095.53
2022-08-26T15:31:57.391Z,101094.06
2022-08-26T15:34:26.571Z,101093.25
2022-08-26T15:36:55.741Z,101092.50
2022-08-26T15:39:24.210Z,101087.13
2022-08-26T15:41:56.313Z,101086.38
2022-08-26T15:44:26.719Z,101087.78
2022-08-26T15:46:58.635Z,101088.59
2022-08-26T15:49:28.063Z,101090.81
2022-08-26T15:51:56.559Z,101084.81
2022-08-26T15:54:25.939Z,101084.94
2022-08-26T15:56:55.850Z,101092.00
2022-08-26T15:59:24.359Z,101088.41
2022-08-26T16:01:53.432Z,101089.16
2022-08-26T16:04:22.331Z,101086.91
2022-08-26T16:06:52.358Z,101092.03
2022-08-26T16:09:23.929Z,101085.19
2022-08-26T16:11:52.920Z,101083.41
2022-08-26T16:14:23.349Z,101080.13
2022-08-26T16:16:52.129Z,101084.56
2022-08-26T16:19:21.301Z,101073.75
2022-08-26T16:21:51.598Z,101084.59
2022-08-26T16:24:24.886Z,101079.25
2022-08-26T16:26:55.971Z,101074.78
2022-08-26T16:29:25.959Z,101085.00
2022-08-26T16:31:54.884Z,101071.19
2022-08-26T16:34:23.950Z,101079.84
2022-08-26T16:36:52.749Z,101075.63
2022-08-26T16:39:21.261Z,101072.69
2022-08-26T16:41:49.699Z,101076.25
2022-08-26T16:44:18.259Z,101073.97
2022-08-26T16:46:48.313Z,101075.00
2022-08-26T16:49:16.979Z,101079.66
2022-08-26T16:51:45.749Z,101079.84
2022-08-26T16:54:14.351Z,101069.59
2022-08-26T16:56:42.749Z,101078.88
2022-08-26T16:59:12.480Z,101078.38
2022-08-26T17:01:40.948Z,101077.72
2022-08-26T17:04:11.009Z,101075.31
2022-08-26T17:06:39.849Z,101079.53
2022-08-26T17:09:08.839Z,101078.88
2022-08-26T17:11:37.349Z,101082.06
2022-08-26T17:14:07.099Z,101089.75
2022-08-26T17:16:35.840Z,101086.53
2022-08-26T17:19:04.709Z,101079.63
2022-08-26T17:21:36.419Z,101077.91
2022-08-26T17:24:06.350Z,101079.44
2022-08-26T17:26:38.009Z,101085.47
2022-08-26T17:29:07.529Z,101084.22
2022-08-26T17:31:35.950Z,101080.63
2022-08-26T17:34:05.609Z,101087.16
2022-08-26T17:36:35.859Z,101088.66
2022-08-26T17:39:04.359Z,101091.41
2022-08-26T17:41:33.299Z,101087.56
2022-08-26T17:44:01.729Z,101085.47
2022-08-26T17:46:31.006Z,101094.38
2022-08-26T17:49:01.959Z,101089.75
2022-08-26T17:51:30.399Z,101095.56
2022-08-26T17:54:00.644Z,101099.28
2022-08-26T17:56:30.750Z,101085.94
2022-08-26T17:59:02.374Z,101087.44
2022-08-26T18:01:33.068Z,101103.88
2022-08-26T18:04:01.791Z,101102.72
2022-08-26T18:06:31.469Z,101100.66
2022-08-26T18:09:01.989Z,101096.56
2022-08-26T18:11:31.973Z,101094.34
2022-08-26T18:14:01.591Z,101097.91
2022-08-26T18:16:34.339Z,101092.66
2022-08-26T18:19:03.299Z,101104.38
2022-08-26T18:21:31.819Z,101108.81
2022-08-26T18:24:01.730Z,101106.81
2022-08-26T18:26:33.009Z,101112.28
2022-08-26T18:29:02.092Z,101113.34
2022-08-26T18:31:31.819Z,101105.78
2022-08-26T18:34:01.663Z,101108.41
2022-08-26T18:36:32.486Z,101104.28
2022-08-26T18:39:03.209Z,101107.88
2022-08-26T18:41:33.950Z,101102.06
2022-08-26T18:44:02.389Z,101103.16
2022-08-26T18:46:30.926Z,101104.94
2022-08-26T18:48:59.521Z,101100.59
2022-08-26T18:51:30.654Z,101108.50
2022-08-26T18:54:00.241Z,101101.75
2022-08-26T18:56:30.589Z,101101.81
2022-08-26T18:59:00.092Z,101097.50
2022-08-26T19:01:29.848Z,101107.97
2022-08-26T19:03:59.620Z,101107.97
2022-08-26T19:06:29.720Z,101109.09
2022-08-26T19:08:58.358Z,101111.84
2022-08-26T19:11:37.511Z,101111.94
2022-08-26T19:14:14.510Z,101111.28
2022-08-26T19:16:44.281Z,101109.81
2022-08-26T19:19:12.969Z,101113.44
2022-08-26T19:21:42.119Z,101113.56
2022-08-26T19:24:15.776Z,101117.16
2022-08-26T19:26:47.200Z,101119.00
2022-08-26T19:31:44.571Z,101121.81
2022-08-26T19:34:18.297Z,101125.41
2022-08-26T19:36:49.691Z,101133.91
2022-08-26T19:39:18.292Z,101132.13
2022-08-26T19:41:48.370Z,101138.75
2022-08-26T19:44:39.252Z,101141.59
2022-08-26T19:47:09.786Z,101137.28
2022-08-26T19:49:39.011Z,101144.50
2022-08-26T19:52:07.910Z,101140.13
2022-08-26T19:54:36.985Z,101147.25
2022-08-26T19:57:07.650Z,101153.47
2022-08-26T19:59:36.540Z,101154.59
2022-08-26T20:02:10.075Z,101153.88
2022-08-26T20:04:39.710Z,101153.88
2022-08-26T20:07:08.885Z,101160.25
2022-08-26T20:09:37.970Z,101162.03
2022-08-26T20:12:09.282Z,101157.63
2022-08-26T20:14:38.000Z,101158.78
2022-08-26T20:17:07.437Z,101160.75
2022-08-26T20:19:54.021Z,101159.16
2022-08-26T20:22:23.282Z,101155.69
2022-08-26T20:24:52.330Z,101155.59
2022-08-26T20:27:35.569Z,101158.91
2022-08-26T20:30:10.103Z,101158.66
2022-08-26T20:32:39.694Z,101151.53
2022-08-26T20:35:10.301Z,101159.63
2022-08-26T20:37:39.980Z,101149.94
2022-08-26T20:40:10.676Z,101152.84
2022-08-26T20:42:40.812Z,101152.16
2022-08-26T20:45:10.930Z,101151.53
2022-08-26T20:47:40.340Z,101149.53
2022-08-26T20:50:09.602Z,101162.81
2022-08-26T20:52:38.630Z,101165.06
2022-08-26T20:55:08.130Z,101161.50
2022-08-26T20:57:37.591Z,101161.84
2022-08-26T21:00:09.270Z,101160.56
2022-08-26T21:02:38.090Z,101160.00
2022-08-26T21:05:15.730Z,101169.84
2022-08-26T21:07:48.960Z,101171.44
2022-08-26T21:10:18.192Z,101171.72
2022-08-26T21:12:49.619Z,101171.84
2022-08-26T21:15:21.585Z,101173.91
2022-08-26T21:17:53.940Z,101180.09
2022-08-26T21:20:25.414Z,101179.34
2022-08-26T21:22:56.440Z,101187.53
2022-08-26T21:25:25.034Z,101184.13
2022-08-26T21:27:53.891Z,101186.50
2022-08-26T21:30:24.335Z,101192.47
2022-08-26T21:32:52.919Z,101190.16
2022-08-26T21:35:21.440Z,101189.38
2022-08-26T21:37:50.454Z,101185.16
2022-08-26T21:40:19.225Z,101188.72
2022-08-26T21:42:47.770Z,101189.47
2022-08-26T21:45:17.200Z,101189.00
2022-08-26T21:47:47.149Z,101193.44
2022-08-26T21:50:15.631Z,101189.84
2022-08-26T21:52:44.220Z,101188.16
2022-08-26T21:55:15.019Z,101194.63
2022-08-26T21:57:43.822Z,101195.75
2022-08-26T22:00:15.859Z,101195.94
2022-08-26T22:02:44.463Z,101193.22
2022-08-26T22:05:14.455Z,101191.63
2022-08-26T22:07:42.934Z,101196.22
2022-08-26T22:10:11.929Z,101191.31
2022-08-26T22:12:40.524Z,101204.56
2022-08-26T22:15:10.486Z,101204.91
2022-08-26T22:17:39.595Z,101210.63
2022-08-26T22:20:16.545Z,101205.56
2022-08-26T22:22:47.365Z,101199.47
2022-08-26T22:25:15.894Z,101212.44
2022-08-26T22:27:44.425Z,101206.81
2022-08-26T22:30:13.616Z,101208.59
2022-08-26T22:32:42.415Z,101209.69
2022-08-26T22:35:29.113Z,101212.50
2022-08-26T22:37:59.384Z,101202.34
2022-08-26T22:40:28.523Z,101202.50
2022-08-26T22:42:58.806Z,101199.03
2022-08-26T22:45:29.561Z,101195.41
2022-08-26T22:47:58.691Z,101198.19
2022-08-26T22:50:27.694Z,101195.69
2022-08-26T22:52:56.234Z,101205.53
2022-08-26T22:55:26.804Z,101200.34
2022-08-26T22:57:55.234Z,101196.78
2022-08-26T23:00:32.385Z,101196.13
2022-08-26T23:03:01.615Z,101198.75
2022-08-26T23:05:31.226Z,101195.38
2022-08-26T23:08:00.165Z,101192.16
2022-08-26T23:10:30.214Z,101198.09
2022-08-26T23:12:58.955Z,101194.63
2022-08-26T23:15:27.667Z,101188.88
2022-08-26T23:17:58.584Z,101193.13
2022-08-26T23:20:39.039Z,101191.56
2022-08-26T23:23:08.399Z,101192.53
2022-08-26T23:25:38.324Z,101196.28
2022-08-26T23:28:09.900Z,101198.97
2022-08-26T23:30:39.074Z,101196.34
2022-08-26T23:33:07.574Z,101199.41
2022-08-26T23:35:35.055Z,101199.16
2022-08-26T23:38:03.604Z,101195.69
2022-08-26T23:40:34.080Z,101193.91
2022-08-26T23:43:06.785Z,101205.59
2022-08-26T23:45:36.090Z,101199.59
2022-08-26T23:48:05.249Z,101193.75
2022-08-26T23:50:51.686Z,101193.09
2022-08-26T23:53:23.134Z,101185.22
2022-08-26T23:55:53.425Z,101178.97
2022-08-26T23:58:23.277Z,101179.13
